createdAt,value
2023-04-05T00:01:34.868Z,123.15
2023-04-05T00:04:03.875Z,121.90
2023-04-05T00:06:32.964Z,119.10
2023-04-05T00:09:04.038Z,120.00
2023-04-05T00:11:35.719Z,117.78
2023-04-05T00:14:04.843Z,119.55
2023-04-05T00:16:35.560Z,119.33
2023-04-05T00:19:03.924Z,109.90
2023-04-05T00:21:33.236Z,114.40
2023-04-05T00:24:02.854Z,106.87
2023-04-05T00:26:31.233Z,111.60
2023-04-05T00:28:59.508Z,114.47
2023-04-05T00:31:27.986Z,109.88
2023-04-05T00:33:57.663Z,107.13
2023-04-05T00:36:26.391Z,109.68
2023-04-05T00:38:56.296Z,115.40
2023-04-05T00:41:24.545Z,114.43
2023-04-05T00:43:53.245Z,120.40
2023-04-05T00:46:22.178Z,121.53
2023-04-05T00:48:51.118Z,126.37
2023-04-05T00:51:20.996Z,125.67
2023-04-05T00:53:52.898Z,123.40
2023-04-05T00:56:23.039Z,127.20
2023-04-05T00:58:53.687Z,119.30
2023-04-05T01:01:23.563Z,123.57
2023-04-05T01:03:54.984Z,119.33
2023-04-05T01:06:37.448Z,118.50
2023-04-05T01:09:14.194Z,115.10
2023-04-05T01:11:46.452Z,124.10
2023-04-05T01:14:15.295Z,115.93
2023-04-05T01:16:43.736Z,117.67
2023-04-05T01:19:13.432Z,117.50
2023-04-05T01:22:15.181Z,117.73
2023-04-05T01:25:06.827Z,122.90
2023-04-05T01:28:00.108Z,129.77
2023-04-05T01:30:34.630Z,127.67
2023-04-05T01:33:15.837Z,126.82
2023-04-05T01:35:52.183Z,131.47
2023-04-05T01:38:26.070Z,125.80
2023-04-05T01:40:55.473Z,134.63
2023-04-05T01:43:23.880Z,121.87
2023-04-05T01:45:53.578Z,134.17
2023-04-05T01:48:21.883Z,134.40
2023-04-05T01:50:50.587Z,132.07
2023-04-05T01:53:19.101Z,135.87
2023-04-05T01:55:47.411Z,131.03
2023-04-05T01:58:15.731Z,130.40
2023-04-05T02:00:44.627Z,134.20
2023-04-05T02:03:14.939Z,133.20
2023-04-05T02:05:44.239Z,137.13
2023-04-05T02:08:13.413Z,132.70
2023-04-05T02:10:42.174Z,132.17
2023-04-05T02:13:10.867Z,133.50
2023-04-05T02:15:39.181Z,143.07
2023-04-05T02:18:08.091Z,125.43
2023-04-05T02:20:38.923Z,128.00
2023-04-05T02:23:07.587Z,130.93
2023-04-05T02:25:36.181Z,133.43
2023-04-05T02:28:04.496Z,131.67
2023-04-05T02:30:33.485Z,135.33
2023-04-05T02:33:02.033Z,136.60
2023-04-05T02:35:30.572Z,138.60
2023-04-05T02:38:02.075Z,134.57
2023-04-05T02:40:30.552Z,132.33
2023-04-05T02:42:59.061Z,134.87
2023-04-05T02:45:27.894Z,136.00
2023-04-05T02:47:56.516Z,139.37
2023-04-05T02:50:24.856Z,141.00
2023-04-05T02:52:53.478Z,136.03
2023-04-05T02:55:23.292Z,132.67
2023-04-05T02:57:51.632Z,130.77
2023-04-05T03:00:21.145Z,127.70
2023-04-05T03:02:49.681Z,133.90
2023-04-05T03:05:18.903Z,134.40
2023-04-05T03:07:50.353Z,131.93
2023-04-05T03:10:19.543Z,131.50
2023-04-05T03:12:51.426Z,135.07
2023-04-05T03:15:19.794Z,131.07
2023-04-05T03:17:48.196Z,136.87
2023-04-05T03:20:16.551Z,132.67
2023-04-05T03:22:44.856Z,135.83
2023-04-05T03:25:13.226Z,139.67
2023-04-05T03:27:41.586Z,132.47
2023-04-05T03:30:12.538Z,129.97
2023-04-05T03:32:40.976Z,130.87
2023-04-05T03:35:10.111Z,129.73
2023-04-05T03:37:38.428Z,124.23
2023-04-05T03:40:10.657Z,122.83
2023-04-05T03:42:38.980Z,132.73
2023-04-05T03:45:08.676Z,119.37
2023-04-05T03:47:38.654Z,122.20
2023-04-05T03:50:08.464Z,126.70
2023-04-05T03:52:37.195Z,123.57
2023-04-05T03:55:06.666Z,122.60
2023-04-05T03:57:35.745Z,121.10
2023-04-05T04:00:14.267Z,131.47
2023-04-05T04:02:46.348Z,114.53
2023-04-05T04:05:16.130Z,116.27
2023-04-05T04:07:45.099Z,113.50
2023-04-05T04:10:15.962Z,120.97
2023-04-05T04:12:44.516Z,119.80
2023-04-05T04:15:13.967Z,125.90
2023-04-05T04:17:42.341Z,130.07
2023-04-05T04:20:13.402Z,130.17
2023-04-05T04:22:41.993Z,135.20
2023-04-05T04:25:11.501Z,126.37
2023-04-05T04:27:42.138Z,129.87
2023-04-05T04:30:13.312Z,126.50
2023-04-05T04:32:59.450Z,121.93
2023-04-05T04:35:30.588Z,119.50
2023-04-05T04:38:00.218Z,116.83
2023-04-05T04:40:32.623Z,114.23
2023-04-05T04:43:01.816Z,137.23
2023-04-05T04:45:34.812Z,126.93
2023-04-05T04:48:05.019Z,124.53
2023-04-05T04:50:35.124Z,127.07
2023-04-05T04:53:03.713Z,130.10
2023-04-05T04:55:33.679Z,128.40
2023-04-05T04:58:02.069Z,124.17
2023-04-05T05:00:30.952Z,131.53
2023-04-05T05:02:59.380Z,127.40
2023-04-05T05:05:27.671Z,126.30
2023-04-05T05:07:57.406Z,121.27
2023-04-05T05:10:25.996Z,126.90
2023-04-05T05:12:54.275Z,128.73
2023-04-05T05:15:22.633Z,131.03
2023-04-05T05:17:53.158Z,125.23
2023-04-05T05:20:22.422Z,128.47
2023-04-05T05:22:51.252Z,130.93
2023-04-05T05:25:21.700Z,145.40
2023-04-05T05:27:51.172Z,135.93
2023-04-05T05:30:20.815Z,138.40
2023-04-05T05:32:49.389Z,138.53
2023-04-05T05:35:17.917Z,140.23
2023-04-05T05:37:46.317Z,140.50
2023-04-05T05:40:16.551Z,139.77
2023-04-05T05:42:47.267Z,151.90
2023-04-05T05:45:15.539Z,143.27
2023-04-05T05:47:43.931Z,143.20
2023-04-05T05:50:12.617Z,144.00
2023-04-05T05:52:41.001Z,141.80
2023-04-05T05:55:10.005Z,137.43
2023-04-05T05:57:38.959Z,139.10
2023-04-05T06:00:10.986Z,135.77
2023-04-05T06:02:39.532Z,146.10
2023-04-05T06:05:09.002Z,161.75
2023-04-05T06:07:38.454Z,163.38
2023-04-05T06:10:08.257Z,152.70
2023-04-05T06:12:36.887Z,154.88
2023-04-05T06:15:06.029Z,146.75
2023-04-05T06:17:41.961Z,128.38
2023-04-05T06:20:11.814Z,128.98
2023-04-05T06:22:41.408Z,133.32
2023-04-05T06:25:13.069Z,133.73
2023-04-05T06:27:41.950Z,135.00
2023-04-05T06:30:11.188Z,142.90
2023-04-05T06:32:41.011Z,135.05
2023-04-05T06:35:09.921Z,136.77
2023-04-05T06:37:38.219Z,144.05
2023-04-05T06:40:07.972Z,133.82
2023-04-05T06:42:36.315Z,128.50
2023-04-05T06:45:05.290Z,127.32
2023-04-05T06:47:35.805Z,116.10
2023-04-05T06:50:06.411Z,112.80
2023-04-05T06:52:35.045Z,108.65
2023-04-05T06:55:04.205Z,113.88
2023-04-05T06:57:32.818Z,106.10
2023-04-05T07:00:01.582Z,106.63
2023-04-05T07:02:29.957Z,95.20
2023-04-05T07:05:04.781Z,91.40
2023-04-05T07:07:34.651Z,92.05
2023-04-05T07:10:03.469Z,88.90
2023-04-05T07:12:31.912Z,81.13
2023-04-05T07:15:01.488Z,78.30
2023-04-05T07:17:29.869Z,75.90
2023-04-05T07:19:58.304Z,72.63
2023-04-05T07:22:27.084Z,71.53
2023-04-05T07:24:57.638Z,66.32
2023-04-05T07:27:26.135Z,61.08
2023-04-05T07:29:54.442Z,58.55
2023-04-05T07:32:23.430Z,50.42
2023-04-05T07:34:51.831Z,48.53
2023-04-05T07:37:20.162Z,42.40
2023-04-05T07:39:48.577Z,37.90
2023-04-05T07:42:21.315Z,40.13
2023-04-05T07:44:49.889Z,39.25
2023-04-05T07:47:18.550Z,35.72
2023-04-05T07:49:47.128Z,37.78
2023-04-05T07:52:15.783Z,29.38
2023-04-05T07:54:45.856Z,26.05
2023-04-05T07:57:22.337Z,23.75
2023-04-05T07:59:52.793Z,20.05
2023-04-05T08:02:21.359Z,18.35
2023-04-05T08:04:49.719Z,16.80
2023-04-05T08:07:18.436Z,14.02
2023-04-05T08:09:47.040Z,12.70
2023-04-05T08:12:15.412Z,13.02
2023-04-05T08:14:45.514Z,11.93
2023-04-05T08:17:14.813Z,11.60
2023-04-05T08:19:43.504Z,12.30
2023-04-05T08:22:12.879Z,12.23
2023-04-05T08:24:41.542Z,13.80
2023-04-05T08:27:10.253Z,11.02
2023-04-05T08:29:38.834Z,11.05
2023-04-05T08:32:09.219Z,12.27
2023-04-05T08:34:37.985Z,11.43
2023-04-05T08:37:06.906Z,11.13
2023-04-05T08:39:36.721Z,8.70
2023-04-05T08:42:09.926Z,9.43
2023-04-05T08:44:39.106Z,9.23
2023-04-05T08:47:10.395Z,8.25
2023-04-05T08:49:38.782Z,8.48
2023-04-05T08:52:08.327Z,7.85
2023-04-05T08:54:36.664Z,7.65
2023-04-05T08:57:10.905Z,8.32
2023-04-05T08:59:40.861Z,6.57
2023-04-05T09:02:16.369Z,6.15
2023-04-05T09:04:45.977Z,5.85
2023-04-05T09:07:15.602Z,7.60
2023-04-05T09:09:46.178Z,6.03
2023-04-05T09:12:15.863Z,6.22
2023-04-05T09:14:45.357Z,5.57
2023-04-05T09:17:15.673Z,7.10
2023-04-05T09:19:44.643Z,6.63
2023-04-05T09:22:14.091Z,6.78
2023-04-05T09:24:43.141Z,7.07
2023-04-05T09:27:12.426Z,6.60
2023-04-05T09:29:41.536Z,6.97
2023-04-05T09:32:11.113Z,5.82
2023-04-05T09:34:41.652Z,6.47
2023-04-05T09:37:16.974Z,6.20
2023-04-05T09:39:46.001Z,6.40
2023-04-05T09:42:16.128Z,6.47
2023-04-05T09:44:51.279Z,6.78
2023-04-05T09:47:20.936Z,7.00
2023-04-05T09:49:50.744Z,7.63
2023-04-05T09:52:23.844Z,7.30
2023-04-05T09:54:56.089Z,7.13
2023-04-05T09:57:26.555Z,8.23
2023-04-05T09:59:55.478Z,8.10
2023-04-05T10:02:24.899Z,7.72
2023-04-05T10:04:54.811Z,8.27
2023-04-05T10:07:23.494Z,7.70
2023-04-05T10:09:51.833Z,7.88
2023-04-05T10:12:27.532Z,7.40
2023-04-05T10:14:56.981Z,7.63
2023-04-05T10:17:28.404Z,8.18
2023-04-05T10:20:11.131Z,9.65
2023-04-05T10:22:47.317Z,12.85
2023-04-05T10:25:27.220Z,8.43
2023-04-05T10:27:57.035Z,9.35
2023-04-05T10:30:26.431Z,8.70
2023-04-05T10:33:05.148Z,8.20
2023-04-05T10:35:45.472Z,8.23
2023-04-05T10:38:21.631Z,8.40
2023-04-05T10:40:54.756Z,8.15
2023-04-05T10:43:28.283Z,7.95
2023-04-05T10:45:58.951Z,8.07
2023-04-05T10:48:38.134Z,7.57
2023-04-05T10:51:08.586Z,7.38
2023-04-05T10:53:39.119Z,7.93
2023-04-05T10:56:08.349Z,7.72
2023-04-05T10:58:39.734Z,8.70
2023-04-05T11:01:09.732Z,9.45
2023-04-05T11:03:51.600Z,8.45
2023-04-05T11:06:23.776Z,7.82
2023-04-05T11:08:55.702Z,7.68
2023-04-05T11:11:27.379Z,7.95
2023-04-05T11:13:56.887Z,8.43
2023-04-05T11:16:39.716Z,9.43
2023-04-05T11:19:08.119Z,7.68
2023-04-05T11:21:37.968Z,15.95
2023-04-05T11:24:08.578Z,8.98
2023-04-05T11:26:56.747Z,9.32
2023-04-05T11:29:48.248Z,8.80
2023-04-05T11:32:17.240Z,8.43
2023-04-05T11:34:46.411Z,8.80
2023-04-05T11:37:51.906Z,8.18
2023-04-05T11:40:29.346Z,8.80
2023-04-05T11:43:06.044Z,9.27
2023-04-05T11:45:36.269Z,8.85
2023-04-05T11:48:07.534Z,8.80
2023-04-05T11:50:38.546Z,8.07
2023-04-05T11:53:11.736Z,8.88
2023-04-05T11:55:42.332Z,9.05
2023-04-05T11:58:16.543Z,9.60
2023-04-05T12:00:46.365Z,9.05
2023-04-05T12:03:15.469Z,8.75
2023-04-05T12:05:48.464Z,9.05
2023-04-05T12:08:17.905Z,8.98
2023-04-05T12:10:56.206Z,9.77
2023-04-05T12:13:29.415Z,9.30
2023-04-05T12:16:00.600Z,9.70
2023-04-05T12:18:31.447Z,9.00
2023-04-05T12:21:00.018Z,9.02
2023-04-05T12:23:28.737Z,9.82
2023-04-05T12:25:59.202Z,10.10
2023-04-05T12:28:28.060Z,9.10
2023-04-05T12:30:58.261Z,9.10
2023-04-05T12:33:30.351Z,8.80
2023-04-05T12:35:59.547Z,8.43
2023-04-05T12:38:28.676Z,9.27
2023-04-05T12:41:01.450Z,9.50
2023-04-05T12:43:40.299Z,9.23
2023-04-05T12:46:11.850Z,9.18
2023-04-05T12:51:39.147Z,9.05
2023-04-05T12:58:14.027Z,9.10
2023-04-05T13:05:40.939Z,9.50
2023-04-05T13:08:15.099Z,9.85
2023-04-05T13:14:24.883Z,9.40
2023-04-05T13:36:18.322Z,9.48
2023-04-05T13:42:28.392Z,10.02
2023-04-05T13:46:05.046Z,9.85
2023-04-05T14:04:39.147Z,9.63
2023-04-05T14:08:28.096Z,17.35
2023-04-05T14:12:49.841Z,9.23
2023-04-05T14:16:41.514Z,8.68
2023-04-05T14:24:18.921Z,7.90
2023-04-05T14:27:51.801Z,8.15
2023-04-05T14:35:05.280Z,9.32
2023-04-05T14:46:01.702Z,8.35
2023-04-05T14:49:05.673Z,8.02
2023-04-05T14:53:06.302Z,9.07
2023-04-05T14:56:51.029Z,7.95
2023-04-05T15:00:22.087Z,8.32
2023-04-05T15:04:41.488Z,9.15
2023-04-05T15:06:43.245Z,8.90
2023-04-05T15:14:48.655Z,8.20
2023-04-05T15:20:51.765Z,7.97
2023-04-05T15:24:28.050Z,8.35
2023-04-05T15:28:19.520Z,8.05
2023-04-05T15:35:53.382Z,8.68
2023-04-05T15:43:09.077Z,8.88
2023-04-05T15:46:31.640Z,9.23
2023-04-05T15:53:08.520Z,8.23
2023-04-05T16:00:44.169Z,9.30
2023-04-05T16:05:34.505Z,8.38
2023-04-05T16:11:55.557Z,8.10
2023-04-05T16:15:45.875Z,8.50
2023-04-05T16:18:58.179Z,8.38
2023-04-05T16:22:51.527Z,9.05
2023-04-05T16:26:50.881Z,8.77
2023-04-05T16:30:28.387Z,8.40
2023-04-05T16:38:25.289Z,8.60
2023-04-05T16:44:26.702Z,8.65
2023-04-05T16:45:46.384Z,8.55
2023-04-05T16:49:31.641Z,8.20
2023-04-05T16:53:09.520Z,8.48
2023-04-05T16:56:28.792Z,8.15
2023-04-05T16:59:37.076Z,10.27
2023-04-05T17:03:08.989Z,11.88
2023-04-05T17:07:40.458Z,12.43
2023-04-05T17:12:05.098Z,11.45
2023-04-05T17:19:38.168Z,11.10
2023-04-05T17:24:12.410Z,13.15
2023-04-05T17:26:41.466Z,12.68
2023-04-05T17:30:26.444Z,13.75
2023-04-05T17:34:19.083Z,13.40
2023-04-05T17:41:20.893Z,12.48
2023-04-05T17:44:45.504Z,15.20
2023-04-05T17:48:37.788Z,12.65
2023-04-05T17:52:32.000Z,13.60
2023-04-05T17:55:38.922Z,13.35
2023-04-05T18:00:02.309Z,14.68
2023-04-05T18:03:45.910Z,14.65
2023-04-05T18:08:22.573Z,14.75
2023-04-05T18:16:41.840Z,14.73
2023-04-05T18:26:35.241Z,16.33
2023-04-05T18:32:11.036Z,17.08
2023-04-05T18:36:47.004Z,19.50
2023-04-05T18:44:26.434Z,20.55
2023-04-05T18:47:36.751Z,21.13
2023-04-05T18:51:14.338Z,21.23
2023-04-05T18:55:03.191Z,22.13
2023-04-05T18:58:41.340Z,22.38
2023-04-05T19:02:32.787Z,22.50
2023-04-05T19:06:05.524Z,25.17
2023-04-05T19:13:12.620Z,23.15
2023-04-05T19:16:39.371Z,22.15
2023-04-05T19:20:35.511Z,22.30
2023-04-05T19:27:37.239Z,22.88
2023-04-05T19:29:22.942Z,23.20
2023-04-05T19:34:06.015Z,22.33
2023-04-05T19:41:49.144Z,20.05
2023-04-05T19:45:48.362Z,20.52
2023-04-05T19:49:06.819Z,20.98
2023-04-05T19:53:10.546Z,21.77
2023-04-05T19:56:50.522Z,21.17
2023-04-05T20:00:08.861Z,20.98
2023-04-05T20:07:04.851Z,23.38
2023-04-05T20:10:44.649Z,36.88
2023-04-05T20:15:03.787Z,53.00
2023-04-05T20:19:10.597Z,53.78
2023-04-05T20:23:26.566Z,34.83
2023-04-05T20:27:33.692Z,26.05
2023-04-05T20:31:23.633Z,28.98
2023-04-05T20:34:37.986Z,33.10
2023-04-05T20:42:44.545Z,28.38
2023-04-05T20:46:59.287Z,32.72
2023-04-05T20:53:42.186Z,29.15
2023-04-05T20:58:24.573Z,27.45
2023-04-05T21:01:02.493Z,22.35
2023-04-05T21:13:01.983Z,21.83
2023-04-05T21:16:13.739Z,22.33
2023-04-05T21:19:46.981Z,22.65
2023-04-05T21:23:07.085Z,22.45
2023-04-05T21:27:07.898Z,23.25
2023-04-05T21:30:46.367Z,23.23
2023-04-05T21:38:03.088Z,22.70
2023-04-05T21:41:43.385Z,23.98
2023-04-05T21:58:54.050Z,22.80
2023-04-05T22:05:59.884Z,26.77
2023-04-05T22:13:34.156Z,23.67
2023-04-05T22:17:33.725Z,24.90
2023-04-05T22:21:15.703Z,25.13
2023-04-05T22:24:31.312Z,23.83
2023-04-05T22:27:38.899Z,23.95
2023-04-05T22:30:49.119Z,23.05
2023-04-05T22:40:55.162Z,23.05
2023-04-05T22:42:55.127Z,23.92
2023-04-05T22:46:48.289Z,25.42
2023-04-05T22:51:44.147Z,24.92
2023-04-05T22:59:44.723Z,21.88
2023-04-05T23:04:02.185Z,21.98
2023-04-05T23:07:55.332Z,20.60
2023-04-05T23:11:38.278Z,19.50
2023-04-05T23:15:13.897Z,20.08
2023-04-05T23:19:21.774Z,19.42
2023-04-05T23:26:12.146Z,22.35
2023-04-05T23:29:51.820Z,22.30
2023-04-05T23:33:08.614Z,21.35
2023-04-05T23:37:44.424Z,22.30
2023-04-05T23:39:58.998Z,21.85
2023-04-05T23:43:24.213Z,21.10
2023-04-05T23:47:49.793Z,21.40
2023-04-05T23:52:00.725Z,21.90
2023-04-05T23:56:07.970Z,20.75
